Tunnel Hill, GA

14:51 EST, 24. Noyaber, 2014 (GMT -0500)
KGADALTO11 | Change Station
CLOSE
Current Station
Personal Weather Stations
Location: Dalton, GA
Böyiklik: 790 ft
Nearby Weather Stations

Elev 790 ft 34.81 °N, 85.00 °W | Updated 1 minute ago

Öleşçä bolıtlı
Öleşçä bolıtlı
71.2 °F
Feels Like 77 °F
N
8.0
Cel Üzgärüçän Cel from BKB
Gusts 18.0 mil/seğ

Bogön
High -- | Low -- °F
--% Chance of Precip.
Kiçä
High -- | Low -- °F
Precip. -- in
7:22 AM 5:30 PM
Waxing Crescent, 6% visible
Basım 29.77 in
Köriniwçenlik 10.0 mil
Bolıtlı Yırtıq bolıtlar 6000 ft
Yırtıq bolıtlar 7000 ft
İssilik 77 °F
Çıq noqtası 48 °F
Dımlıq 44%
Rainfall 0.00 in
Qar bieklege Not available.
UV 2 out of 12
Pollen 2.10 out of 12
Hawa Sífatı Not available.
Flu Activity Not available.
METAR KDNN 241935Z AUTO 24006KT 10SM SCT060 SCT070 22/11 A2977 RMK AO2 LTG DSNT S

More Conditions Fewer Conditions

Basım 29.77 in
Köriniwçenlik 10.0 mil
Bolıtlı Yırtıq bolıtlar 6000 ft
Yırtıq bolıtlar 7000 ft
İssilik 77 °F
Çıq noqtası 48 °F
Dımlıq 44%
Rainfall 0.00 in
Qar bieklege Not available.
UV 2 out of 12
Pollen 2.10 out of 12
Hawa Sífatı Not available.
Flu Activity Not available.
METAR KDNN 241935Z AUTO 24006KT 10SM SCT060 SCT070 22/11 A2977 RMK AO2 LTG DSNT S

More Conditions Fewer Conditions

10-Day Weather Forecast

Almanac

Kükbelem

Nov. 24, 2014 Rise Set
Anıñ çağı
Tormışlı qaranğı
Diñgezdä qarañğı
Küktä qarañğı
Ay
Kürenmäle yaqtı ozınlığı
Kön ozınlığı
Tomorrow will be .
, % of the Moon is Illuminated

Today's Extremes

State Highs State Lows

Community

WunderPhotos

Upload Photos

1,773,396 photos uploaded!

WunderBlogs® & News

Nearby

Hawa Sífatı

  Hawa Sífatı HS İndekse Pıçratqıç
Not available.

Qar terenligi

Station Depth Böyiklik

Earthquake Activity

Qala Distance Mag. Time & Date
Minimum magnitude displayed is 2.5.

Coastal Water Temperatures

Orın Cılılıq

Nearby Weather Stations